Terminal Aerodrome Forecast
Issued by NWS Riverton, WY

Current Version | Previous Version | Text Only | Print | Product List | Glossary On
Versions: 1 2 3 4 5 6 7 8 9 10 11 12 13 14 15 16 17
492
FTUS45 KRIW 150539
TAFRIW
TAF
KRIW 150539Z 1506/1606 29008KT P6SM VCFG SCT200
     FM151700 19006KT P6SM BKN200
     FM160200 30009KT P6SM BKN150=

USA.gov is the U.S. government's official web portal to all federal, state and local government web resources and services.